Albertville, AL (35950)

1:56 PM CST on January 24, 2017 (GMT -0600)
Near Airport | | Change Station
Active Advisory: Flood Warning

Elev 1020 ft 34.24 °N, 86.23 °W | Updated 2 seconds ago

Clear
Clear
54.8 °F
Feels Like 54.8 °F
N
4.0
Wind Variable Wind from WNW
Gusts 4.0 mph

Today
High -- | Low -- °F
--% Chance of Precip.
Yesterday
High -- | Low -- °F
Precip. -- in
Pressure 29.86 in
Visibility 10.0 miles
Clouds Clear
Dew Point 37 °F
Humidity 51%
Rainfall 0.00 in
Snow Depth Not available.
6:47 AM 5:07 PM
Waning Crescent, 10% visible
METAR K8A0 241935Z AUTO 30004KT 10SM CLR 12/04 A2986 RMK AO2
Pressure 29.86 in
Visibility 10.0 miles
Clouds Clear
Dew Point 37 °F
Humidity 51%
Rainfall 0.00 in
Snow Depth Not available.
6:47 AM 5:07 PM
Waning Crescent, 10% visible
METAR K8A0 241935Z AUTO 30004KT 10SM CLR 12/04 A2986 RMK AO2

Get Your Daily Forecast Email!

Thanks for signing up!

Be on the lookout for a verification email in your inbox.

You'll start receiving the daily forecast at 8 AM.

×

10-Day Weather Forecast

Almanac

Astronomy

Jan. 24, 2017 Rise Set
Actual Time
Civil Twilight
Nautical Twilight
Astronomical Twilight
Moon
Length of Visible Light
Length of Day
Tomorrow will be .
, % of the Moon is Illuminated

Today's Extremes

State Highs State Lows

Community

WunderPhotos

Upload Photos

1,962,540 photos uploaded!

WunderBlog® & News

Nearby

Air Quality

  Air Quality AQ Index Pollutant
Not available.

Snow Depth

Station Depth Elevation

Earthquake Activity

City Distance Mag. Time & Date
Minimum magnitude displayed is 2.5.

Coastal Water Temperatures

Place Temperature

Stations

Nearby Weather Stations

Station Location Temp. Windchill Dew Point Humidity Wind Precip. Elev Updated Type
                   

Watches & Warnings

Flood Warning
Issued: 6:52 AM CST Jan. 24, 2017 – National Weather Service

The Flood Warning continues for
the Paint Rock river near Woodville.
* Until Wednesday afternoon.
* At 6 am Tuesday the stage was 18.3 feet and rising.
* Flood stage is 16.0 feet.
* Minor flooding is occurring and minor flooding is forecast.
* Recent activity... the maximum river stage in the 24 hours ending at
6 am Tuesday was 18.3 feet.
* Forecast... the river will continue rising to near 18.5 feet by
early this afternoon. The river will fall below flood stage late
tomorrow morning.
* Impact... at 19.0 feet... water is covering Alabama State Route 65
about two miles north of U.S. Highway 72. Several County roads in
Paint Rock Valley are flooded... including Jackson County Road 20.
* Flood history... this crest compares to a previous crest of 18.0 feet
on Dec 3 2015.

River flood observed 12pm 6pm 12am 6am crest
location stage stg day time Tue Tue Wed Wed stg day time

Paint Rock river
Woodville 16.0 18.3 Tue 6 am 18.5 18.4 18.1 17.2 18.5 Tue 12 PM


Lat... Lon 3491 8628 3489 8606 3442 8637 3450 8653